sensor_id;sensor_type;location;lat;lon;timestamp;temperature;humidity
12708;DHT22;6418;50.824;4.718;2022-09-29T00:00:51;5.50;99.90
12708;DHT22;6418;50.824;4.718;2022-09-29T00:03:19;5.50;99.90
12708;DHT22;6418;50.824;4.718;2022-09-29T00:05:47;5.50;99.90
12708;DHT22;6418;50.824;4.718;2022-09-29T00:08:15;5.50;99.90
12708;DHT22;6418;50.824;4.718;2022-09-29T00:10:43;5.40;99.90
12708;DHT22;6418;50.824;4.718;2022-09-29T00:13:12;5.50;99.90
12708;DHT22;6418;50.824;4.718;2022-09-29T00:15:40;5.30;99.90
12708;DHT22;6418;50.824;4.718;2022-09-29T00:18:07;6.40;99.90
12708;DHT22;6418;50.824;4.718;2022-09-29T00:20:36;5.40;99.90
12708;DHT22;6418;50.824;4.718;2022-09-29T00:23:03;6.30;99.90
12708;DHT22;6418;50.824;4.718;2022-09-29T00:25:30;5.40;99.90
12708;DHT22;6418;50.824;4.718;2022-09-29T00:27:57;5.30;99.90
12708;DHT22;6418;50.824;4.718;2022-09-29T00:30:26;5.60;99.90
12708;DHT22;6418;50.824;4.718;2022-09-29T00:32:53;5.30;99.90
12708;DHT22;6418;50.824;4.718;2022-09-29T00:35:20;6.10;99.90
12708;DHT22;6418;50.824;4.718;2022-09-29T00:37:47;6.20;99.90
12708;DHT22;6418;50.824;4.718;2022-09-29T00:40:14;5.30;99.90
12708;DHT22;6418;50.824;4.718;2022-09-29T00:42:41;5.30;99.90
12708;DHT22;6418;50.824;4.718;2022-09-29T00:45:20;5.20;99.90
12708;DHT22;6418;50.824;4.718;2022-09-29T00:47:57;5.30;99.90
12708;DHT22;6418;50.824;4.718;2022-09-29T00:50:32;5.30;99.90
12708;DHT22;6418;50.824;4.718;2022-09-29T00:53:03;5.80;99.90
12708;DHT22;6418;50.824;4.718;2022-09-29T00:55:39;5.30;99.90
12708;DHT22;6418;50.824;4.718;2022-09-29T00:58:12;5.30;99.90
12708;DHT22;6418;50.824;4.718;2022-09-29T01:00:40;5.30;99.90
12708;DHT22;6418;50.824;4.718;2022-09-29T01:03:12;5.30;99.90
12708;DHT22;6418;50.824;4.718;2022-09-29T01:05:43;6.20;99.90
12708;DHT22;6418;50.824;4.718;2022-09-29T01:08:13;5.30;99.90
12708;DHT22;6418;50.824;4.718;2022-09-29T01:10:42;5.30;99.90
12708;DHT22;6418;50.824;4.718;2022-09-29T01:13:09;5.30;99.90
12708;DHT22;6418;50.824;4.718;2022-09-29T01:15:37;6.40;99.90
12708;DHT22;6418;50.824;4.718;2022-09-29T01:18:04;5.90;99.90
12708;DHT22;6418;50.824;4.718;2022-09-29T01:20:36;5.20;99.90
12708;DHT22;6418;50.824;4.718;2022-09-29T01:23:28;5.20;99.90
12708;DHT22;6418;50.824;4.718;2022-09-29T01:32:36;5.10;99.90
12708;DHT22;6418;50.824;4.718;2022-09-29T01:35:10;5.10;99.90
12708;DHT22;6418;50.824;4.718;2022-09-29T01:37:49;6.20;99.90
12708;DHT22;6418;50.824;4.718;2022-09-29T01:40:27;5.00;99.90
12708;DHT22;6418;50.824;4.718;2022-09-29T01:43:02;5.00;99.90
12708;DHT22;6418;50.824;4.718;2022-09-29T01:45:32;5.00;99.90
12708;DHT22;6418;50.824;4.718;2022-09-29T01:48:04;5.00;99.90
12708;DHT22;6418;50.824;4.718;2022-09-29T01:50:36;5.50;99.90
12708;DHT22;6418;50.824;4.718;2022-09-29T01:53:08;4.90;99.90
12708;DHT22;6418;50.824;4.718;2022-09-29T01:55:40;4.90;99.90
12708;DHT22;6418;50.824;4.718;2022-09-29T01:58:12;4.90;99.90
12708;DHT22;6418;50.824;4.718;2022-09-29T02:00:47;4.80;99.90
12708;DHT22;6418;50.824;4.718;2022-09-29T02:03:19;4.80;99.90
12708;DHT22;6418;50.824;4.718;2022-09-29T02:05:51;4.80;99.90
12708;DHT22;6418;50.824;4.718;2022-09-29T02:08:24;4.80;99.90
12708;DHT22;6418;50.824;4.718;2022-09-29T02:10:58;4.70;99.90
12708;DHT22;6418;50.824;4.718;2022-09-29T02:13:30;4.70;99.90
12708;DHT22;6418;50.824;4.718;2022-09-29T02:15:58;4.70;99.90
12708;DHT22;6418;50.824;4.718;2022-09-29T02:18:31;4.70;99.90
12708;DHT22;6418;50.824;4.718;2022-09-29T02:21:00;4.60;99.90
12708;DHT22;6418;50.824;4.718;2022-09-29T02:23:27;5.60;99.90
12708;DHT22;6418;50.824;4.718;2022-09-29T02:25:54;4.60;99.90
12708;DHT22;6418;50.824;4.718;2022-09-29T02:28:24;4.60;99.90
12708;DHT22;6418;50.824;4.718;2022-09-29T02:30:51;4.60;99.90
12708;DHT22;6418;50.824;4.718;2022-09-29T02:33:20;6.00;99.90
12708;DHT22;6418;50.824;4.718;2022-09-29T02:35:58;5.40;99.90
12708;DHT22;6418;50.824;4.718;2022-09-29T02:38:34;5.60;99.90
12708;DHT22;6418;50.824;4.718;2022-09-29T02:41:08;5.60;99.90
12708;DHT22;6418;50.824;4.718;2022-09-29T02:43:48;4.50;99.90
12708;DHT22;6418;50.824;4.718;2022-09-29T02:46:32;4.40;99.90
12708;DHT22;6418;50.824;4.718;2022-09-29T02:49:14;4.40;99.90
12708;DHT22;6418;50.824;4.718;2022-09-29T02:51:48;4.40;99.90
12708;DHT22;6418;50.824;4.718;2022-09-29T02:54:29;4.40;99.90
12708;DHT22;6418;50.824;4.718;2022-09-29T02:57:06;4.50;99.90
12708;DHT22;6418;50.824;4.718;2022-09-29T02:59:43;5.10;99.90
12708;DHT22;6418;50.824;4.718;2022-09-29T03:02:12;4.40;99.90
12708;DHT22;6418;50.824;4.718;2022-09-29T03:04:40;5.30;99.90
12708;DHT22;6418;50.824;4.718;2022-09-29T03:07:09;4.30;99.90
12708;DHT22;6418;50.824;4.718;2022-09-29T03:09:36;4.30;99.90
12708;DHT22;6418;50.824;4.718;2022-09-29T03:12:03;4.30;99.90
12708;DHT22;6418;50.824;4.718;2022-09-29T03:14:29;4.30;99.90
12708;DHT22;6418;50.824;4.718;2022-09-29T03:16:56;4.30;99.90
12708;DHT22;6418;50.824;4.718;2022-09-29T03:19:23;4.30;99.90
12708;DHT22;6418;50.824;4.718;2022-09-29T03:21:50;4.30;99.90
12708;DHT22;6418;50.824;4.718;2022-09-29T03:24:19;4.30;99.90
12708;DHT22;6418;50.824;4.718;2022-09-29T03:26:46;4.90;99.90
12708;DHT22;6418;50.824;4.718;2022-09-29T03:29:12;4.20;99.90
12708;DHT22;6418;50.824;4.718;2022-09-29T03:31:39;5.60;99.90
12708;DHT22;6418;50.824;4.718;2022-09-29T03:34:06;5.50;99.90
12708;DHT22;6418;50.824;4.718;2022-09-29T03:36:33;4.20;99.90
12708;DHT22;6418;50.824;4.718;2022-09-29T03:39:00;4.20;99.90
12708;DHT22;6418;50.824;4.718;2022-09-29T03:41:28;4.20;99.90
12708;DHT22;6418;50.824;4.718;2022-09-29T03:43:55;4.30;99.90
12708;DHT22;6418;50.824;4.718;2022-09-29T03:46:23;4.20;99.90
12708;DHT22;6418;50.824;4.718;2022-09-29T03:48:50;4.20;99.90
12708;DHT22;6418;50.824;4.718;2022-09-29T03:51:17;4.20;99.90
12708;DHT22;6418;50.824;4.718;2022-09-29T03:53:44;4.20;99.90
12708;DHT22;6418;50.824;4.718;2022-09-29T03:56:10;4.20;99.90
12708;DHT22;6418;50.824;4.718;2022-09-29T03:58:39;4.20;99.90
12708;DHT22;6418;50.824;4.718;2022-09-29T04:01:06;4.20;99.90
12708;DHT22;6418;50.824;4.718;2022-09-29T04:03:33;4.20;99.90
12708;DHT22;6418;50.824;4.718;2022-09-29T04:05:59;5.00;99.90
12708;DHT22;6418;50.824;4.718;2022-09-29T04:08:26;4.10;99.90
12708;DHT22;6418;50.824;4.718;2022-09-29T04:10:53;4.10;99.90
12708;DHT22;6418;50.824;4.718;2022-09-29T04:13:20;4.20;99.90
12708;DHT22;6418;50.824;4.718;2022-09-29T04:15:49;4.10;99.90
12708;DHT22;6418;50.824;4.718;2022-09-29T04:18:16;5.00;99.90
12708;DHT22;6418;50.824;4.718;2022-09-29T04:20:43;4.70;99.90
12708;DHT22;6418;50.824;4.718;2022-09-29T04:23:09;4.40;99.90
12708;DHT22;6418;50.824;4.718;2022-09-29T04:25:37;4.10;99.90
12708;DHT22;6418;50.824;4.718;2022-09-29T04:28:04;4.10;99.90
12708;DHT22;6418;50.824;4.718;2022-09-29T04:30:31;5.50;99.90
12708;DHT22;6418;50.824;4.718;2022-09-29T04:32:59;4.20;99.90
12708;DHT22;6418;50.824;4.718;2022-09-29T04:35:26;4.10;99.90
12708;DHT22;6418;50.824;4.718;2022-09-29T04:37:54;4.10;99.90
12708;DHT22;6418;50.824;4.718;2022-09-29T04:40:24;4.20;99.90
12708;DHT22;6418;50.824;4.718;2022-09-29T04:42:51;4.10;99.90
12708;DHT22;6418;50.824;4.718;2022-09-29T04:45:17;5.70;99.90
12708;DHT22;6418;50.824;4.718;2022-09-29T04:47:44;4.10;99.90
12708;DHT22;6418;50.824;4.718;2022-09-29T04:50:13;4.10;99.90
12708;DHT22;6418;50.824;4.718;2022-09-29T04:52:41;4.10;99.90
12708;DHT22;6418;50.824;4.718;2022-09-29T04:55:09;4.20;99.90
12708;DHT22;6418;50.824;4.718;2022-09-29T04:57:37;4.20;99.90
12708;DHT22;6418;50.824;4.718;2022-09-29T05:00:05;4.20;99.90
12708;DHT22;6418;50.824;4.718;2022-09-29T05:02:32;4.20;99.90
12708;DHT22;6418;50.824;4.718;2022-09-29T05:04:59;4.30;99.90
12708;DHT22;6418;50.824;4.718;2022-09-29T05:07:28;4.20;99.90
12708;DHT22;6418;50.824;4.718;2022-09-29T05:09:55;4.20;99.90
12708;DHT22;6418;50.824;4.718;2022-09-29T05:12:21;4.20;99.90
12708;DHT22;6418;50.824;4.718;2022-09-29T05:14:48;4.80;99.90
12708;DHT22;6418;50.824;4.718;2022-09-29T05:17:15;4.20;99.90
12708;DHT22;6418;50.824;4.718;2022-09-29T05:19:42;4.50;99.90
12708;DHT22;6418;50.824;4.718;2022-09-29T05:22:09;4.20;99.90
12708;DHT22;6418;50.824;4.718;2022-09-29T05:24:37;4.20;99.90
12708;DHT22;6418;50.824;4.718;2022-09-29T05:27:04;4.20;99.90
12708;DHT22;6418;50.824;4.718;2022-09-29T05:29:32;4.10;99.90
12708;DHT22;6418;50.824;4.718;2022-09-29T05:31:59;5.50;99.90
12708;DHT22;6418;50.824;4.718;2022-09-29T05:34:26;4.20;99.90
12708;DHT22;6418;50.824;4.718;2022-09-29T05:36:53;6.10;99.90
12708;DHT22;6418;50.824;4.718;2022-09-29T05:39:20;4.20;99.90
12708;DHT22;6418;50.824;4.718;2022-09-29T05:41:49;4.80;99.90
12708;DHT22;6418;50.824;4.718;2022-09-29T05:44:17;4.20;99.90
12708;DHT22;6418;50.824;4.718;2022-09-29T05:46:43;6.00;99.90
12708;DHT22;6418;50.824;4.718;2022-09-29T05:49:10;4.20;99.90
12708;DHT22;6418;50.824;4.718;2022-09-29T05:51:37;4.20;99.90
12708;DHT22;6418;50.824;4.718;2022-09-29T05:54:04;4.10;99.90
12708;DHT22;6418;50.824;4.718;2022-09-29T05:56:31;4.20;99.90
12708;DHT22;6418;50.824;4.718;2022-09-29T05:59:00;4.20;99.90
12708;DHT22;6418;50.824;4.718;2022-09-29T06:01:27;5.80;99.90
12708;DHT22;6418;50.824;4.718;2022-09-29T06:03:54;4.20;99.90
12708;DHT22;6418;50.824;4.718;2022-09-29T06:06:23;2.80;99.90
12708;DHT22;6418;50.824;4.718;2022-09-29T06:08:51;5.80;99.90
12708;DHT22;6418;50.824;4.718;2022-09-29T06:11:19;4.20;99.90
12708;DHT22;6418;50.824;4.718;2022-09-29T06:13:47;4.20;99.90
12708;DHT22;6418;50.824;4.718;2022-09-29T06:16:17;4.10;99.90
12708;DHT22;6418;50.824;4.718;2022-09-29T06:18:45;4.10;99.90
12708;DHT22;6418;50.824;4.718;2022-09-29T06:21:13;4.10;99.90
12708;DHT22;6418;50.824;4.718;2022-09-29T06:23:41;4.10;99.90
12708;DHT22;6418;50.824;4.718;2022-09-29T06:26:12;4.20;99.90
12708;DHT22;6418;50.824;4.718;2022-09-29T06:28:40;5.60;99.90
12708;DHT22;6418;50.824;4.718;2022-09-29T06:31:10;4.20;99.90
12708;DHT22;6418;50.824;4.718;2022-09-29T06:33:39;5.70;99.90
12708;DHT22;6418;50.824;4.718;2022-09-29T06:36:10;4.20;99.90
12708;DHT22;6418;50.824;4.718;2022-09-29T06:38:55;4.30;99.90
12708;DHT22;6418;50.824;4.718;2022-09-29T06:41:22;4.30;99.90
12708;DHT22;6418;50.824;4.718;2022-09-29T06:43:49;4.40;99.90
12708;DHT22;6418;50.824;4.718;2022-09-29T06:46:16;4.50;99.90
12708;DHT22;6418;50.824;4.718;2022-09-29T06:48:44;4.60;99.90
12708;DHT22;6418;50.824;4.718;2022-09-29T06:51:13;5.90;99.90
12708;DHT22;6418;50.824;4.718;2022-09-29T06:53:40;4.80;99.90
12708;DHT22;6418;50.824;4.718;2022-09-29T06:56:08;5.50;99.90
12708;DHT22;6418;50.824;4.718;2022-09-29T06:58:36;5.70;99.90
12708;DHT22;6418;50.824;4.718;2022-09-29T07:01:03;5.10;99.90
12708;DHT22;6418;50.824;4.718;2022-09-29T07:03:31;5.20;99.90
12708;DHT22;6418;50.824;4.718;2022-09-29T07:06:03;5.40;99.90
12708;DHT22;6418;50.824;4.718;2022-09-29T07:08:30;5.40;99.90
12708;DHT22;6418;50.824;4.718;2022-09-29T07:10:59;6.50;99.90
12708;DHT22;6418;50.824;4.718;2022-09-29T07:13:27;6.00;99.90
12708;DHT22;6418;50.824;4.718;2022-09-29T07:15:54;5.90;99.90
12708;DHT22;6418;50.824;4.718;2022-09-29T07:18:21;5.90;99.90
12708;DHT22;6418;50.824;4.718;2022-09-29T07:20:48;6.00;99.90
12708;DHT22;6418;50.824;4.718;2022-09-29T07:23:16;6.60;99.90
12708;DHT22;6418;50.824;4.718;2022-09-29T07:25:44;6.40;99.90
12708;DHT22;6418;50.824;4.718;2022-09-29T07:28:12;6.90;99.90
12708;DHT22;6418;50.824;4.718;2022-09-29T07:30:38;6.30;99.90
12708;DHT22;6418;50.824;4.718;2022-09-29T07:33:06;7.00;99.90
12708;DHT22;6418;50.824;4.718;2022-09-29T07:35:33;6.40;99.90
12708;DHT22;6418;50.824;4.718;2022-09-29T07:38:00;7.30;99.90
12708;DHT22;6418;50.824;4.718;2022-09-29T07:40:28;6.50;99.90
12708;DHT22;6418;50.824;4.718;2022-09-29T07:42:55;6.60;99.90
12708;DHT22;6418;50.824;4.718;2022-09-29T07:45:25;6.60;99.90
12708;DHT22;6418;50.824;4.718;2022-09-29T07:47:52;6.80;99.90
12708;DHT22;6418;50.824;4.718;2022-09-29T07:50:21;6.70;99.90
12708;DHT22;6418;50.824;4.718;2022-09-29T07:52:49;6.80;99.90
12708;DHT22;6418;50.824;4.718;2022-09-29T07:55:17;6.90;99.90
12708;DHT22;6418;50.824;4.718;2022-09-29T07:57:47;6.90;99.90
12708;DHT22;6418;50.824;4.718;2022-09-29T08:00:14;6.90;99.90
12708;DHT22;6418;50.824;4.718;2022-09-29T08:02:42;7.00;99.90
12708;DHT22;6418;50.824;4.718;2022-09-29T08:05:09;7.80;99.90
12708;DHT22;6418;50.824;4.718;2022-09-29T08:07:36;7.10;99.90
12708;DHT22;6418;50.824;4.718;2022-09-29T08:10:04;7.10;99.90
12708;DHT22;6418;50.824;4.718;2022-09-29T08:12:31;7.20;99.90
12708;DHT22;6418;50.824;4.718;2022-09-29T08:14:59;7.20;99.90
12708;DHT22;6418;50.824;4.718;2022-09-29T08:17:26;7.30;99.90
12708;DHT22;6418;50.824;4.718;2022-09-29T08:19:53;8.60;99.90
12708;DHT22;6418;50.824;4.718;2022-09-29T08:22:20;7.40;99.90
12708;DHT22;6418;50.824;4.718;2022-09-29T08:24:47;7.40;99.90
12708;DHT22;6418;50.824;4.718;2022-09-29T08:27:14;7.50;99.90
12708;DHT22;6418;50.824;4.718;2022-09-29T08:29:41;7.60;99.90
12708;DHT22;6418;50.824;4.718;2022-09-29T08:32:10;7.60;99.90
12708;DHT22;6418;50.824;4.718;2022-09-29T08:34:37;7.60;99.90
12708;DHT22;6418;50.824;4.718;2022-09-29T08:37:03;7.70;99.90
12708;DHT22;6418;50.824;4.718;2022-09-29T08:39:30;7.70;99.90
12708;DHT22;6418;50.824;4.718;2022-09-29T08:42:04;7.80;99.90
12708;DHT22;6418;50.824;4.718;2022-09-29T08:44:37;7.90;99.90
12708;DHT22;6418;50.824;4.718;2022-09-29T08:47:12;8.20;99.90
12708;DHT22;6418;50.824;4.718;2022-09-29T08:49:42;8.00;99.90
12708;DHT22;6418;50.824;4.718;2022-09-29T08:52:14;8.10;99.90
12708;DHT22;6418;50.824;4.718;2022-09-29T08:54:44;8.10;99.90
12708;DHT22;6418;50.824;4.718;2022-09-29T08:57:13;8.10;99.90
12708;DHT22;6418;50.824;4.718;2022-09-29T08:59:47;8.60;99.90
12708;DHT22;6418;50.824;4.718;2022-09-29T09:02:38;8.50;99.90
12708;DHT22;6418;50.824;4.718;2022-09-29T09:05:28;8.30;99.90
12708;DHT22;6418;50.824;4.718;2022-09-29T09:08:03;8.40;99.90
12708;DHT22;6418;50.824;4.718;2022-09-29T09:10:40;8.50;99.90
12708;DHT22;6418;50.824;4.718;2022-09-29T09:13:39;8.60;99.90
12708;DHT22;6418;50.824;4.718;2022-09-29T09:16:19;8.50;99.90
12708;DHT22;6418;50.824;4.718;2022-09-29T09:19:17;8.60;99.90
12708;DHT22;6418;50.824;4.718;2022-09-29T09:21:50;8.60;99.90
12708;DHT22;6418;50.824;4.718;2022-09-29T09:24:24;8.70;99.90
12708;DHT22;6418;50.824;4.718;2022-09-29T09:26:55;9.60;99.90
12708;DHT22;6418;50.824;4.718;2022-09-29T09:29:27;9.60;99.90
12708;DHT22;6418;50.824;4.718;2022-09-29T09:31:57;8.90;99.90
12708;DHT22;6418;50.824;4.718;2022-09-29T09:34:32;8.90;99.90
12708;DHT22;6418;50.824;4.718;2022-09-29T09:37:04;9.00;99.90
12708;DHT22;6418;50.824;4.718;2022-09-29T09:39:35;9.00;99.90
12708;DHT22;6418;50.824;4.718;2022-09-29T09:42:12;9.10;99.90
12708;DHT22;6418;50.824;4.718;2022-09-29T09:44:43;9.20;99.90
12708;DHT22;6418;50.824;4.718;2022-09-29T09:47:23;9.50;99.90
12708;DHT22;6418;50.824;4.718;2022-09-29T09:49:55;9.20;99.90
12708;DHT22;6418;50.824;4.718;2022-09-29T09:52:28;9.30;99.90
12708;DHT22;6418;50.824;4.718;2022-09-29T09:54:59;9.30;99.90
12708;DHT22;6418;50.824;4.718;2022-09-29T09:57:56;9.40;99.90
12708;DHT22;6418;50.824;4.718;2022-09-29T10:00:30;9.40;99.90
12708;DHT22;6418;50.824;4.718;2022-09-29T10:03:02;9.50;99.90
12708;DHT22;6418;50.824;4.718;2022-09-29T10:05:34;9.50;99.90
12708;DHT22;6418;50.824;4.718;2022-09-29T10:08:04;9.60;99.90
12708;DHT22;6418;50.824;4.718;2022-09-29T10:10:31;9.70;99.90
12708;DHT22;6418;50.824;4.718;2022-09-29T10:13:02;9.70;99.90
12708;DHT22;6418;50.824;4.718;2022-09-29T10:15:34;9.60;99.90
12708;DHT22;6418;50.824;4.718;2022-09-29T10:18:11;9.80;99.90
12708;DHT22;6418;50.824;4.718;2022-09-29T10:20:41;9.80;99.90
12708;DHT22;6418;50.824;4.718;2022-09-29T10:23:18;9.90;99.90
12708;DHT22;6418;50.824;4.718;2022-09-29T10:25:52;9.90;99.90
12708;DHT22;6418;50.824;4.718;2022-09-29T10:28:20;10.00;99.90
12708;DHT22;6418;50.824;4.718;2022-09-29T10:30:48;10.10;99.90
12708;DHT22;6418;50.824;4.718;2022-09-29T10:33:17;10.10;99.90
12708;DHT22;6418;50.824;4.718;2022-09-29T10:35:50;10.20;99.90
12708;DHT22;6418;50.824;4.718;2022-09-29T10:38:28;10.30;99.90
12708;DHT22;6418;50.824;4.718;2022-09-29T10:41:02;10.20;99.90
12708;DHT22;6418;50.824;4.718;2022-09-29T10:43:35;10.20;99.90
12708;DHT22;6418;50.824;4.718;2022-09-29T10:46:04;10.30;99.90
12708;DHT22;6418;50.824;4.718;2022-09-29T10:48:32;10.30;99.90
12708;DHT22;6418;50.824;4.718;2022-09-29T10:51:03;10.30;99.90
12708;DHT22;6418;50.824;4.718;2022-09-29T10:53:36;10.40;99.90
12708;DHT22;6418;50.824;4.718;2022-09-29T10:56:09;10.40;99.90
12708;DHT22;6418;50.824;4.718;2022-09-29T10:58:41;10.40;99.90
12708;DHT22;6418;50.824;4.718;2022-09-29T11:01:12;10.40;99.90
12708;DHT22;6418;50.824;4.718;2022-09-29T11:03:45;10.50;99.90
12708;DHT22;6418;50.824;4.718;2022-09-29T11:06:15;10.50;99.90
12708;DHT22;6418;50.824;4.718;2022-09-29T11:08:55;10.50;99.90
12708;DHT22;6418;50.824;4.718;2022-09-29T11:11:29;10.50;99.90
12708;DHT22;6418;50.824;4.718;2022-09-29T11:13:57;10.50;99.90
12708;DHT22;6418;50.824;4.718;2022-09-29T11:16:28;10.60;99.90
12708;DHT22;6418;50.824;4.718;2022-09-29T11:18:58;10.60;99.90
12708;DHT22;6418;50.824;4.718;2022-09-29T11:25:10;10.80;99.90
12708;DHT22;6418;50.824;4.718;2022-09-29T11:27:49;10.80;99.90
12708;DHT22;6418;50.824;4.718;2022-09-29T11:30:19;10.90;99.90
12708;DHT22;6418;50.824;4.718;2022-09-29T11:33:03;11.00;99.90
12708;DHT22;6418;50.824;4.718;2022-09-29T11:35:44;11.00;99.90
12708;DHT22;6418;50.824;4.718;2022-09-29T11:41:09;11.10;99.90
12708;DHT22;6418;50.824;4.718;2022-09-29T11:43:44;11.20;99.90
12708;DHT22;6418;50.824;4.718;2022-09-29T11:46:34;11.30;99.90
12708;DHT22;6418;50.824;4.718;2022-09-29T11:49:26;11.40;99.90
12708;DHT22;6418;50.824;4.718;2022-09-29T11:52:09;11.40;99.90
12708;DHT22;6418;50.824;4.718;2022-09-29T11:54:53;11.50;99.90
12708;DHT22;6418;50.824;4.718;2022-09-29T11:57:34;11.60;99.90
12708;DHT22;6418;50.824;4.718;2022-09-29T12:00:08;11.70;99.90
12708;DHT22;6418;50.824;4.718;2022-09-29T12:03:02;11.70;99.90
12708;DHT22;6418;50.824;4.718;2022-09-29T12:05:51;11.70;99.90
12708;DHT22;6418;50.824;4.718;2022-09-29T12:08:26;11.80;99.90
12708;DHT22;6418;50.824;4.718;2022-09-29T12:10:59;11.80;99.90
12708;DHT22;6418;50.824;4.718;2022-09-29T12:13:38;11.90;99.90
12708;DHT22;6418;50.824;4.718;2022-09-29T12:16:12;12.00;99.90
12708;DHT22;6418;50.824;4.718;2022-09-29T12:18:45;12.10;99.90
12708;DHT22;6418;50.824;4.718;2022-09-29T12:21:15;12.20;99.90
12708;DHT22;6418;50.824;4.718;2022-09-29T12:23:46;12.30;99.90
12708;DHT22;6418;50.824;4.718;2022-09-29T12:26:16;12.40;99.90
12708;DHT22;6418;50.824;4.718;2022-09-29T12:28:50;12.60;99.90
12708;DHT22;6418;50.824;4.718;2022-09-29T12:31:22;12.70;99.90
12708;DHT22;6418;50.824;4.718;2022-09-29T12:33:53;12.70;99.90
12708;DHT22;6418;50.824;4.718;2022-09-29T12:36:32;12.80;99.90
12708;DHT22;6418;50.824;4.718;2022-09-29T12:39:20;12.90;99.90
12708;DHT22;6418;50.824;4.718;2022-09-29T12:41:52;13.00;99.90
12708;DHT22;6418;50.824;4.718;2022-09-29T12:44:29;13.00;99.90
12708;DHT22;6418;50.824;4.718;2022-09-29T12:47:01;12.90;99.90
12708;DHT22;6418;50.824;4.718;2022-09-29T12:49:36;13.00;99.90
12708;DHT22;6418;50.824;4.718;2022-09-29T12:52:13;13.00;99.90
12708;DHT22;6418;50.824;4.718;2022-09-29T12:54:45;13.00;99.90
12708;DHT22;6418;50.824;4.718;2022-09-29T12:57:15;13.10;99.90
12708;DHT22;6418;50.824;4.718;2022-09-29T12:59:48;13.10;99.90
12708;DHT22;6418;50.824;4.718;2022-09-29T13:02:44;13.10;99.90
12708;DHT22;6418;50.824;4.718;2022-09-29T13:05:26;13.10;99.90
12708;DHT22;6418;50.824;4.718;2022-09-29T13:08:26;13.00;99.90
12708;DHT22;6418;50.824;4.718;2022-09-29T13:11:18;13.10;99.90
12708;DHT22;6418;50.824;4.718;2022-09-29T13:13:57;13.10;99.90
12708;DHT22;6418;50.824;4.718;2022-09-29T13:16:41;13.10;99.90
12708;DHT22;6418;50.824;4.718;2022-09-29T13:19:34;13.10;99.90
12708;DHT22;6418;50.824;4.718;2022-09-29T13:25:10;13.20;99.90
12708;DHT22;6418;50.824;4.718;2022-09-29T13:27:41;13.20;99.90
12708;DHT22;6418;50.824;4.718;2022-09-29T13:30:13;13.10;99.90
12708;DHT22;6418;50.824;4.718;2022-09-29T13:32:45;13.10;99.90
12708;DHT22;6418;50.824;4.718;2022-09-29T13:35:15;13.10;99.90
12708;DHT22;6418;50.824;4.718;2022-09-29T13:37:46;13.10;99.90
12708;DHT22;6418;50.824;4.718;2022-09-29T13:40:18;13.10;99.90
12708;DHT22;6418;50.824;4.718;2022-09-29T13:42:47;13.10;99.90
12708;DHT22;6418;50.824;4.718;2022-09-29T13:45:36;13.00;99.90
12708;DHT22;6418;50.824;4.718;2022-09-29T13:51:42;13.00;99.90
12708;DHT22;6418;50.824;4.718;2022-09-29T13:54:24;13.00;99.90
12708;DHT22;6418;50.824;4.718;2022-09-29T13:59:43;13.00;99.90
12708;DHT22;6418;50.824;4.718;2022-09-29T14:02:19;12.90;99.90
12708;DHT22;6418;50.824;4.718;2022-09-29T14:04:51;13.00;99.90
12708;DHT22;6418;50.824;4.718;2022-09-29T14:07:43;13.00;99.90
12708;DHT22;6418;50.824;4.718;2022-09-29T14:10:19;13.00;99.90
12708;DHT22;6418;50.824;4.718;2022-09-29T14:12:54;13.00;99.90
12708;DHT22;6418;50.824;4.718;2022-09-29T14:15:23;13.10;99.90
12708;DHT22;6418;50.824;4.718;2022-09-29T14:17:55;13.20;99.90
12708;DHT22;6418;50.824;4.718;2022-09-29T14:20:25;13.30;99.90
12708;DHT22;6418;50.824;4.718;2022-09-29T14:22:58;13.30;99.90
12708;DHT22;6418;50.824;4.718;2022-09-29T14:28:25;13.60;99.90
12708;DHT22;6418;50.824;4.718;2022-09-29T14:30:58;13.60;99.90
12708;DHT22;6418;50.824;4.718;2022-09-29T14:33:29;13.70;99.90
12708;DHT22;6418;50.824;4.718;2022-09-29T14:36:05;13.80;99.90
12708;DHT22;6418;50.824;4.718;2022-09-29T14:38:38;13.80;99.90
12708;DHT22;6418;50.824;4.718;2022-09-29T14:41:23;13.90;99.90
12708;DHT22;6418;50.824;4.718;2022-09-29T14:43:52;13.80;99.90
12708;DHT22;6418;50.824;4.718;2022-09-29T14:49:45;13.90;99.90
12708;DHT22;6418;50.824;4.718;2022-09-29T14:52:41;13.90;99.90
12708;DHT22;6418;50.824;4.718;2022-09-29T14:55:14;13.90;99.90
12708;DHT22;6418;50.824;4.718;2022-09-29T14:57:59;13.90;99.90
12708;DHT22;6418;50.824;4.718;2022-09-29T15:00:35;13.90;99.90
12708;DHT22;6418;50.824;4.718;2022-09-29T15:03:08;14.00;99.90
12708;DHT22;6418;50.824;4.718;2022-09-29T15:05:35;14.00;99.90
12708;DHT22;6418;50.824;4.718;2022-09-29T15:08:21;14.00;99.90
12708;DHT22;6418;50.824;4.718;2022-09-29T15:10:50;14.00;99.90
12708;DHT22;6418;50.824;4.718;2022-09-29T15:13:22;14.00;99.90
12708;DHT22;6418;50.824;4.718;2022-09-29T15:15:55;14.10;99.90
12708;DHT22;6418;50.824;4.718;2022-09-29T15:18:38;14.10;99.90
12708;DHT22;6418;50.824;4.718;2022-09-29T15:21:14;14.10;99.90
12708;DHT22;6418;50.824;4.718;2022-09-29T15:24:01;14.10;99.90
12708;DHT22;6418;50.824;4.718;2022-09-29T15:26:34;14.10;99.90
12708;DHT22;6418;50.824;4.718;2022-09-29T15:29:05;14.20;99.90
12708;DHT22;6418;50.824;4.718;2022-09-29T15:31:32;14.10;99.90
12708;DHT22;6418;50.824;4.718;2022-09-29T15:34:00;14.20;99.90
12708;DHT22;6418;50.824;4.718;2022-09-29T15:36:34;14.20;99.90
12708;DHT22;6418;50.824;4.718;2022-09-29T15:39:04;14.10;99.90
12708;DHT22;6418;50.824;4.718;2022-09-29T15:41:34;14.20;99.90
12708;DHT22;6418;50.824;4.718;2022-09-29T15:44:02;14.10;99.90
12708;DHT22;6418;50.824;4.718;2022-09-29T15:46:36;14.10;99.90
12708;DHT22;6418;50.824;4.718;2022-09-29T15:49:15;14.20;99.90
12708;DHT22;6418;50.824;4.718;2022-09-29T15:51:45;14.20;99.90
12708;DHT22;6418;50.824;4.718;2022-09-29T15:54:19;14.10;99.90
12708;DHT22;6418;50.824;4.718;2022-09-29T15:56:48;14.10;99.90
12708;DHT22;6418;50.824;4.718;2022-09-29T15:59:43;14.10;99.90
12708;DHT22;6418;50.824;4.718;2022-09-29T16:02:19;14.10;99.90
12708;DHT22;6418;50.824;4.718;2022-09-29T16:04:51;13.90;99.90
12708;DHT22;6418;50.824;4.718;2022-09-29T16:07:24;14.10;99.90
12708;DHT22;6418;50.824;4.718;2022-09-29T16:09:58;14.00;99.90
12708;DHT22;6418;50.824;4.718;2022-09-29T16:12:30;14.00;99.90
12708;DHT22;6418;50.824;4.718;2022-09-29T16:14:59;13.90;99.90
12708;DHT22;6418;50.824;4.718;2022-09-29T16:17:26;13.90;99.90
12708;DHT22;6418;50.824;4.718;2022-09-29T16:19:53;13.90;99.90
12708;DHT22;6418;50.824;4.718;2022-09-29T16:22:24;13.90;99.90
12708;DHT22;6418;50.824;4.718;2022-09-29T16:25:07;13.90;99.90
12708;DHT22;6418;50.824;4.718;2022-09-29T16:27:43;13.80;99.90
12708;DHT22;6418;50.824;4.718;2022-09-29T16:30:20;13.70;99.90
12708;DHT22;6418;50.824;4.718;2022-09-29T16:32:56;13.80;99.90
12708;DHT22;6418;50.824;4.718;2022-09-29T16:35:38;13.80;99.90
12708;DHT22;6418;50.824;4.718;2022-09-29T16:38:18;13.80;99.90
12708;DHT22;6418;50.824;4.718;2022-09-29T16:40:46;13.80;99.90
12708;DHT22;6418;50.824;4.718;2022-09-29T16:43:21;13.70;99.90
12708;DHT22;6418;50.824;4.718;2022-09-29T16:45:50;13.70;99.90
12708;DHT22;6418;50.824;4.718;2022-09-29T16:48:19;13.60;99.90
12708;DHT22;6418;50.824;4.718;2022-09-29T16:50:46;13.50;99.90
12708;DHT22;6418;50.824;4.718;2022-09-29T16:53:24;13.40;99.90